createdAt,value
2023-01-11T09:59:48.683Z,4.71
2023-01-11T10:00:12.817Z,4.71
2023-01-11T10:00:32.716Z,4.71
2023-01-11T10:00:55.401Z,4.70
2023-01-11T10:01:15.303Z,4.73
2023-01-11T10:01:37.893Z,4.74
2023-01-11T10:02:01.377Z,4.75
2023-01-11T10:02:23.510Z,4.74
2023-01-11T10:02:46.721Z,4.74
2023-01-11T10:03:25.906Z,4.75
2023-01-11T10:04:25.956Z,4.77
2023-01-11T10:04:51.398Z,4.78
2023-01-11T10:05:31.056Z,4.77
2023-01-11T10:05:56.525Z,4.79
2023-01-11T10:06:18.470Z,4.82
2023-01-11T10:06:37.261Z,4.84
2023-01-11T10:07:12.358Z,4.83
2023-01-11T10:07:44.129Z,4.84
2023-01-11T10:18:21.216Z,5.00
2023-01-11T10:18:25.379Z,5.02
2023-01-11T10:18:27.913Z,5.08
2023-01-11T10:18:28.362Z,5.04
2023-01-11T10:18:29.957Z,5.03
2023-01-11T10:18:32.763Z,5.07
2023-01-11T10:19:18.680Z,5.10
2023-01-11T10:19:38.555Z,5.11
2023-01-11T10:20:01.370Z,5.13
2023-01-11T10:20:24.523Z,5.13
2023-01-11T10:20:43.833Z,5.13
2023-01-11T10:21:04.986Z,5.16
2023-01-11T10:21:23.504Z,5.17
2023-01-11T10:21:44.175Z,5.18
2023-01-11T10:22:02.230Z,5.19
2023-01-11T10:22:18.076Z,5.19
2023-01-11T10:22:36.937Z,5.19
2023-01-11T10:22:52.437Z,5.19
2023-01-11T10:23:11.645Z,5.20
2023-01-11T10:23:29.783Z,5.20
2023-01-11T10:23:50.809Z,5.20
2023-01-11T10:24:12.343Z,5.21
2023-01-11T10:24:30.028Z,5.22
2023-01-11T10:24:48.472Z,5.22
2023-01-11T10:25:11.398Z,5.24
2023-01-11T10:25:31.271Z,5.24
2023-01-11T10:25:51.583Z,5.25
2023-01-11T10:26:13.114Z,5.24
2023-01-11T10:26:29.111Z,5.25
2023-01-11T10:26:42.106Z,5.26
2023-01-11T10:26:59.133Z,5.26
2023-01-11T10:27:20.430Z,5.26
2023-01-11T10:27:37.847Z,5.26
2023-01-11T10:27:56.936Z,5.27
2023-01-11T10:28:23.052Z,5.31
2023-01-11T10:28:43.299Z,5.34
2023-01-11T10:29:22.166Z,5.33
2023-01-11T10:29:57.550Z,5.35
2023-01-11T10:30:33.552Z,5.36
2023-01-11T10:31:07.474Z,5.34
2023-01-11T10:31:43.925Z,5.36
2023-01-11T10:32:15.271Z,5.37
2023-01-11T10:32:45.824Z,5.38
2023-01-11T10:33:14.519Z,5.37
2023-01-11T10:33:49.995Z,5.37
2023-01-11T10:34:22.603Z,5.39
2023-01-11T10:34:56.242Z,5.40
2023-01-11T10:35:29.892Z,5.40
2023-01-11T10:35:58.167Z,5.42
2023-01-11T10:36:30.755Z,5.43
2023-01-11T10:37:10.984Z,5.44
2023-01-11T10:37:44.239Z,5.46
2023-01-11T10:38:15.431Z,5.46
2023-01-11T10:38:57.709Z,5.47
2023-01-11T10:39:32.040Z,5.49
2023-01-11T10:40:11.636Z,5.50
2023-01-11T10:40:35.280Z,5.50
2023-01-11T10:41:06.762Z,5.50
2023-01-11T10:41:26.513Z,5.52
2023-01-11T10:41:52.365Z,5.58
2023-01-11T10:42:11.899Z,5.57
2023-01-11T10:42:28.759Z,5.60
2023-01-11T10:42:48.799Z,5.60
2023-01-11T10:43:12.888Z,5.60
2023-01-11T10:43:27.016Z,5.59
2023-01-11T10:43:45.049Z,5.59
2023-01-11T10:44:05.218Z,5.59
2023-01-11T10:44:28.887Z,5.59
2023-01-11T10:44:52.647Z,5.60
2023-01-11T10:45:13.369Z,5.60
2023-01-11T10:45:37.449Z,5.62
2023-01-11T10:45:53.379Z,5.63
2023-01-11T10:46:11.416Z,5.62
2023-01-11T10:46:26.746Z,5.62
2023-01-11T10:46:44.674Z,5.61
2023-01-11T10:47:00.290Z,5.61
2023-01-11T10:47:18.354Z,5.62
2023-01-11T10:47:37.253Z,5.63
2023-01-11T10:47:57.207Z,5.62
2023-01-11T10:48:18.704Z,5.62
2023-01-11T10:48:37.217Z,5.62
2023-01-11T10:49:01.163Z,5.64
2023-01-11T10:49:33.664Z,5.65
2023-01-11T10:49:56.105Z,5.66
2023-01-11T10:50:19.388Z,5.65
2023-01-11T10:50:40.695Z,5.66
2023-01-11T10:51:01.646Z,5.64
2023-01-11T10:51:24.873Z,5.65
2023-01-11T10:51:44.142Z,5.65
2023-01-11T10:52:05.209Z,5.63
2023-01-11T10:52:28.175Z,5.67
2023-01-11T10:52:48.153Z,5.69
2023-01-11T10:53:07.771Z,5.69
2023-01-11T10:53:25.792Z,5.69
2023-01-11T10:53:44.297Z,5.72
2023-01-11T10:54:27.335Z,5.70
2023-01-11T10:54:46.794Z,5.69
2023-01-11T10:55:03.125Z,5.70
2023-01-11T10:55:23.227Z,5.69
2023-01-11T10:55:47.236Z,5.69
2023-01-11T10:56:13.874Z,5.69
2023-01-11T10:56:42.546Z,5.69
2023-01-11T10:57:08.975Z,5.69
2023-01-11T10:57:37.830Z,5.69
2023-01-11T10:58:03.583Z,5.69
2023-01-11T10:58:31.235Z,5.70
2023-01-11T10:59:03.916Z,5.71
2023-01-11T10:59:34.972Z,5.72
2023-01-11T11:00:08.994Z,5.72
2023-01-11T11:00:35.560Z,5.77
2023-01-11T11:00:58.679Z,5.77
2023-01-11T11:01:24.501Z,5.75
2023-01-11T11:01:55.584Z,5.74
2023-01-11T11:02:22.414Z,5.77
2023-01-11T11:02:56.075Z,5.79
2023-01-11T11:03:24.405Z,5.85
2023-01-11T11:04:02.525Z,5.82
2023-01-11T11:04:28.919Z,5.81
2023-01-11T11:05:05.143Z,5.80
2023-01-11T11:05:29.274Z,5.81
2023-01-11T11:05:51.072Z,5.83
2023-01-11T11:06:11.088Z,5.82
2023-01-11T11:06:33.916Z,5.82
2023-01-11T11:06:55.593Z,5.82
2023-01-11T11:07:15.250Z,5.81
2023-01-11T11:07:35.739Z,5.80
2023-01-11T11:07:55.698Z,5.81
2023-01-11T11:08:14.744Z,5.80
2023-01-11T11:08:33.586Z,5.80
2023-01-11T11:08:53.340Z,5.79
2023-01-11T11:09:17.831Z,5.80
2023-01-11T11:09:38.596Z,5.80
2023-01-11T11:09:59.159Z,5.81
2023-01-11T11:10:18.853Z,5.80
2023-01-11T11:10:38.357Z,5.83
2023-01-11T11:10:57.616Z,5.85
2023-01-11T11:11:14.897Z,5.87
2023-01-11T11:11:34.960Z,5.86
2023-01-11T11:11:53.269Z,5.85
2023-01-11T11:12:11.520Z,5.85
2023-01-11T11:12:29.289Z,5.83
2023-01-11T11:12:53.315Z,5.84
2023-01-11T11:13:21.377Z,5.84
2023-01-11T11:13:45.294Z,5.83
2023-01-11T11:14:04.417Z,5.84
2023-01-11T11:14:28.812Z,5.84
2023-01-11T11:14:47.208Z,5.86
2023-01-11T11:15:09.890Z,5.86
2023-01-11T11:15:28.816Z,5.86
2023-01-11T11:15:48.465Z,5.86
2023-01-11T11:16:06.821Z,5.86
2023-01-11T11:16:34.298Z,5.88
2023-01-11T11:17:00.146Z,5.88
2023-01-11T11:17:20.457Z,5.88
2023-01-11T11:17:35.929Z,5.87
2023-01-11T11:17:51.268Z,5.88
2023-01-11T11:18:04.800Z,5.87
2023-01-11T11:18:18.374Z,5.87
2023-01-11T11:18:31.065Z,5.87
2023-01-11T11:18:43.952Z,5.86
2023-01-11T11:18:58.714Z,5.87
2023-01-11T11:19:18.706Z,5.87
2023-01-11T11:19:33.269Z,5.90
2023-01-11T11:19:46.341Z,5.89
2023-01-11T11:19:59.290Z,5.89
2023-01-11T11:20:15.524Z,5.90
2023-01-11T11:20:30.859Z,5.88
2023-01-11T11:20:44.226Z,5.88
2023-01-11T11:21:02.924Z,5.88
2023-01-11T11:21:23.305Z,5.88
2023-01-11T11:21:38.987Z,5.87
2023-01-11T11:21:52.498Z,5.85
2023-01-11T11:22:05.148Z,5.86
2023-01-11T11:22:19.989Z,5.85
2023-01-11T11:22:33.089Z,5.86
2023-01-11T11:22:45.744Z,5.86
2023-01-11T11:22:59.139Z,5.88
2023-01-11T11:23:18.416Z,5.88
2023-01-11T11:23:31.646Z,5.87
2023-01-11T11:23:47.462Z,5.88
2023-01-11T11:24:03.860Z,5.88
2023-01-11T11:24:22.438Z,5.87
2023-01-11T11:24:41.811Z,5.89
2023-01-11T11:25:00.958Z,5.92
2023-01-11T11:25:18.071Z,5.90
2023-01-11T11:25:33.504Z,5.95
2023-01-11T11:25:51.344Z,5.95
2023-01-11T11:26:06.846Z,5.94
2023-01-11T11:26:21.175Z,5.92
2023-01-11T11:26:38.365Z,5.92
2023-01-11T11:26:57.358Z,5.92
2023-01-11T11:27:20.737Z,5.90
2023-01-11T11:27:40.023Z,5.91
2023-01-11T11:27:56.846Z,5.90
2023-01-11T11:28:27.023Z,5.92
2023-01-11T11:28:59.945Z,5.93
2023-01-11T11:29:21.234Z,5.93
2023-01-11T11:29:41.594Z,5.93
2023-01-11T11:29:57.366Z,5.92
2023-01-11T11:30:13.229Z,5.91
2023-01-11T11:30:29.405Z,5.91
2023-01-11T11:30:43.992Z,5.91
2023-01-11T11:30:59.847Z,5.91
2023-01-11T11:31:15.163Z,5.91
2023-01-11T11:31:29.201Z,5.91
2023-01-11T11:31:44.245Z,5.91
2023-01-11T11:32:00.258Z,5.92
2023-01-11T11:32:25.568Z,5.93
2023-01-11T11:32:43.107Z,5.92
2023-01-11T11:33:00.705Z,5.93
2023-01-11T11:33:20.706Z,5.92
2023-01-11T11:33:35.757Z,5.92
2023-01-11T11:33:48.528Z,5.93
2023-01-11T11:34:06.992Z,5.92
2023-01-11T11:34:22.361Z,5.93
2023-01-11T11:34:36.046Z,5.92
2023-01-11T11:34:50.257Z,5.92
2023-01-11T11:35:03.151Z,5.92
2023-01-11T11:35:30.499Z,5.93
2023-01-11T11:35:46.432Z,5.91
2023-01-11T11:36:02.172Z,5.91
2023-01-11T11:36:17.535Z,5.91
2023-01-11T11:36:41.473Z,5.92
2023-01-11T11:36:54.565Z,5.93
2023-01-11T11:37:21.807Z,5.94
2023-01-11T11:37:36.115Z,5.93
2023-01-11T11:37:48.920Z,5.94
2023-01-11T11:38:01.745Z,5.97
2023-01-11T11:38:22.527Z,5.97
2023-01-11T11:38:38.520Z,5.95
2023-01-11T11:39:05.450Z,5.95
2023-01-11T11:39:20.862Z,5.94
2023-01-11T11:39:34.570Z,5.94
2023-01-11T11:39:49.066Z,5.93
2023-01-11T11:40:02.410Z,5.93
2023-01-11T11:40:29.645Z,5.93
2023-01-11T11:40:43.274Z,5.93
2023-01-11T11:41:06.479Z,5.94
2023-01-11T11:41:19.088Z,5.92
2023-01-11T11:41:47.182Z,5.93
2023-01-11T11:42:07.845Z,5.93
2023-01-11T11:42:21.550Z,5.93
2023-01-11T11:42:34.195Z,5.93
2023-01-11T11:42:46.947Z,5.93
2023-01-11T11:43:20.802Z,5.94
2023-01-11T11:43:34.608Z,5.93
2023-01-11T11:43:47.833Z,5.94
2023-01-11T11:44:15.463Z,5.93
2023-01-11T11:44:29.862Z,5.94
2023-01-11T11:44:42.553Z,5.94
2023-01-11T11:45:16.447Z,5.94
2023-01-11T11:45:30.056Z,5.95
2023-01-11T11:45:51.464Z,6.01
2023-01-11T11:46:07.106Z,5.97
2023-01-11T11:46:27.702Z,5.98
2023-01-11T11:46:40.498Z,5.98
2023-01-11T11:47:04.411Z,5.99
2023-01-11T11:47:17.688Z,5.99
2023-01-11T11:47:30.385Z,5.99
2023-01-11T11:47:45.015Z,5.98
2023-01-11T11:48:02.707Z,6.00
2023-01-11T11:48:15.354Z,5.99
2023-01-11T11:48:31.219Z,5.99
2023-01-11T11:48:44.510Z,5.95
2023-01-11T11:49:13.230Z,5.98
2023-01-11T11:49:26.748Z,5.97
2023-01-11T11:49:40.015Z,5.95
2023-01-11T11:50:42.428Z,5.95
2023-01-11T11:51:00.205Z,5.95
2023-01-11T11:51:17.002Z,5.95
2023-01-11T11:51:29.716Z,5.97
2023-01-11T11:51:44.372Z,5.95
2023-01-11T11:52:26.513Z,5.95
2023-01-11T11:54:20.456Z,5.97
2023-01-11T11:54:36.429Z,6.01
2023-01-11T11:54:51.672Z,6.01
2023-01-11T11:55:08.108Z,6.00
2023-01-11T11:55:27.088Z,6.00
2023-01-11T11:55:40.745Z,6.00
2023-01-11T11:55:53.964Z,5.99
2023-01-11T11:56:14.149Z,6.01
2023-01-11T11:56:28.998Z,6.00
2023-01-11T11:56:41.844Z,6.00
2023-01-11T11:56:57.085Z,5.99
2023-01-11T11:57:15.923Z,5.97
2023-01-11T11:57:32.457Z,5.99
2023-01-11T11:57:45.135Z,5.98
2023-01-11T11:58:00.427Z,5.98
2023-01-11T11:58:19.683Z,6.00
2023-01-11T11:58:32.578Z,5.99
2023-01-11T11:58:46.343Z,5.99
2023-01-11T11:59:05.432Z,6.01
2023-01-11T11:59:20.310Z,6.01
2023-01-11T11:59:33.919Z,6.00
2023-01-11T11:59:48.866Z,6.01
2023-01-11T12:00:04.303Z,6.01
2023-01-11T12:00:25.683Z,6.00
2023-01-11T12:00:46.502Z,6.06
2023-01-11T12:01:00.346Z,6.03
2023-01-11T12:01:27.414Z,6.02
2023-01-11T12:01:46.760Z,6.03
2023-01-11T12:02:04.700Z,6.02
2023-01-11T12:02:28.270Z,6.01
2023-01-11T12:02:49.735Z,6.02
2023-01-11T12:03:06.217Z,6.01
2023-01-11T12:03:21.848Z,6.03
2023-01-11T12:03:36.076Z,6.03
2023-01-11T12:03:49.598Z,6.04
2023-01-11T12:04:11.743Z,6.03
2023-01-11T12:04:33.329Z,6.03
2023-01-11T12:04:49.791Z,6.02
2023-01-11T12:05:09.244Z,6.01
2023-01-11T12:05:22.278Z,6.01
2023-01-11T12:05:34.953Z,6.03
2023-01-11T12:05:53.724Z,6.03
2023-01-11T12:06:08.852Z,6.02
2023-01-11T12:06:25.195Z,6.03
2023-01-11T12:06:38.237Z,6.01
2023-01-11T12:07:06.595Z,6.01
2023-01-11T12:07:21.939Z,6.01
2023-01-11T12:07:49.892Z,6.01
2023-01-11T12:08:07.756Z,6.01
2023-01-11T12:08:21.707Z,6.02
2023-01-11T12:08:35.496Z,6.00
2023-01-11T12:08:48.121Z,6.00
2023-01-11T12:09:03.636Z,6.01
2023-01-11T12:09:27.749Z,6.01
2023-01-11T12:09:44.290Z,6.05
2023-01-11T12:10:00.448Z,6.04
2023-01-11T12:10:16.875Z,6.03
2023-01-11T12:10:32.009Z,6.03
2023-01-11T12:10:49.769Z,6.01
2023-01-11T12:11:06.774Z,6.04
2023-01-11T12:11:30.014Z,6.03
2023-01-11T12:11:47.896Z,6.01
2023-01-11T12:12:02.080Z,6.04
2023-01-11T12:12:18.345Z,6.05
2023-01-11T12:12:32.468Z,6.02
2023-01-11T12:12:56.235Z,6.02
2023-01-11T12:13:27.727Z,6.02
2023-01-11T12:13:42.485Z,6.02
2023-01-11T12:14:01.177Z,6.02
2023-01-11T12:14:19.676Z,6.02
2023-01-11T12:14:35.149Z,6.00
2023-01-11T12:15:18.499Z,6.03
2023-01-11T12:15:34.628Z,6.02
2023-01-11T12:15:56.726Z,6.03
2023-01-11T12:16:21.093Z,6.07
2023-01-11T12:16:38.456Z,6.05
2023-01-11T12:16:52.086Z,6.06
2023-01-11T12:17:22.894Z,6.05
2023-01-11T12:17:35.720Z,6.05
2023-01-11T12:17:48.808Z,6.05
2023-01-11T12:18:25.957Z,6.08
2023-01-11T12:18:41.584Z,6.06
2023-01-11T12:18:54.233Z,6.06
2023-01-11T12:19:29.516Z,6.05
2023-01-11T12:19:45.239Z,6.05
2023-01-11T12:19:57.932Z,6.05
2023-01-11T12:20:27.815Z,6.06
2023-01-11T12:20:44.705Z,6.05
2023-01-11T12:20:57.313Z,6.05
2023-01-11T12:21:18.262Z,6.07
2023-01-11T12:21:30.852Z,6.06
2023-01-11T12:21:44.805Z,6.06
2023-01-11T12:22:17.863Z,6.05
2023-01-11T12:22:30.587Z,6.05
2023-01-11T12:22:44.819Z,6.05
2023-01-11T12:23:14.855Z,6.05
2023-01-11T12:23:27.488Z,6.06
2023-01-11T12:23:41.071Z,6.06
2023-01-11T12:24:10.387Z,6.06
2023-01-11T12:24:23.971Z,6.08
2023-01-11T12:24:36.571Z,6.07
2023-01-11T12:25:05.559Z,6.07
2023-01-11T12:25:21.782Z,6.07
2023-01-11T12:25:39.777Z,6.06
2023-01-11T12:26:21.197Z,6.05
2023-01-11T12:26:41.707Z,6.06
2023-01-11T12:27:03.862Z,6.06
2023-01-11T12:27:30.137Z,6.07
2023-01-11T12:27:50.927Z,6.07
2023-01-11T12:28:11.651Z,6.06
2023-01-11T12:28:37.901Z,6.07
2023-01-11T12:29:23.092Z,6.07
2023-01-11T12:29:56.108Z,6.05
2023-01-11T12:30:25.744Z,6.07
2023-01-11T12:30:48.114Z,6.08
2023-01-11T12:31:12.602Z,6.14
2023-01-11T12:31:36.801Z,6.11
2023-01-11T12:32:04.022Z,6.11
2023-01-11T12:32:40.562Z,6.09
2023-01-11T12:33:08.667Z,6.10
2023-01-11T12:33:37.979Z,6.11
2023-01-11T12:33:57.331Z,6.09
2023-01-11T12:34:22.698Z,6.09
2023-01-11T12:34:52.565Z,6.09
2023-01-11T12:35:25.215Z,6.11
2023-01-11T12:35:47.780Z,6.13
2023-01-11T12:36:06.807Z,6.11
2023-01-11T12:36:29.380Z,6.11
2023-01-11T12:36:50.255Z,6.11
2023-01-11T12:37:18.923Z,6.14
2023-01-11T12:37:45.619Z,6.14
2023-01-11T12:38:13.879Z,6.13
2023-01-11T12:38:47.179Z,6.11
2023-01-11T12:39:09.850Z,6.11
2023-01-11T12:39:33.906Z,6.11
2023-01-11T12:39:55.503Z,6.10
2023-01-11T12:40:18.140Z,6.11
2023-01-11T12:40:36.317Z,6.10
2023-01-11T12:41:04.362Z,6.10
2023-01-11T12:41:50.208Z,6.10
2023-01-11T12:42:15.950Z,6.10
2023-01-11T12:43:05.323Z,6.11
2023-01-11T12:43:30.864Z,6.08
2023-01-11T12:43:57.705Z,6.10
2023-01-11T12:44:15.884Z,6.12
2023-01-11T12:44:45.897Z,6.15
2023-01-11T12:45:12.967Z,6.13
2023-01-11T12:45:38.669Z,6.14
2023-01-11T12:46:05.386Z,6.13
2023-01-11T12:46:28.362Z,6.13
2023-01-11T12:46:54.717Z,6.13
2023-01-11T12:47:26.546Z,6.14
2023-01-11T12:48:05.663Z,6.14
2023-01-11T12:48:38.112Z,6.12
2023-01-11T12:49:06.135Z,6.13
2023-01-11T12:49:30.114Z,6.13
2023-01-11T12:49:52.631Z,6.12
2023-01-11T12:50:15.962Z,6.11
2023-01-11T12:50:33.210Z,6.11
2023-01-11T12:51:05.175Z,6.12
2023-01-11T12:51:31.040Z,6.12
2023-01-11T12:52:02.079Z,6.14
2023-01-11T12:52:39.319Z,6.14
2023-01-11T12:53:17.161Z,6.16
2023-01-11T12:53:43.409Z,6.14
2023-01-11T12:54:18.817Z,6.15
2023-01-11T12:54:42.881Z,6.14
2023-01-11T12:55:15.257Z,6.14
2023-01-11T12:55:42.481Z,6.15
2023-01-11T12:56:20.771Z,6.14
2023-01-11T12:56:57.551Z,6.16
2023-01-11T12:57:20.068Z,6.15
2023-01-11T12:57:41.727Z,6.18
2023-01-11T12:58:00.458Z,6.17
2023-01-11T12:58:20.999Z,6.17
2023-01-11T12:58:41.339Z,6.19
2023-01-11T12:58:59.258Z,6.19
2023-01-11T12:59:27.916Z,6.18
2023-01-11T13:00:07.146Z,6.18
2023-01-11T13:00:32.195Z,6.19
2023-01-11T13:01:16.312Z,6.18
2023-01-11T13:01:40.990Z,6.23
2023-01-11T13:02:05.483Z,6.24
2023-01-11T13:02:38.024Z,6.24
2023-01-11T13:03:08.796Z,6.23
2023-01-11T13:03:53.675Z,6.22
2023-01-11T13:04:33.392Z,6.23
2023-01-11T13:04:55.142Z,6.23
2023-01-11T13:05:23.580Z,6.22
2023-01-11T13:05:47.692Z,6.22
2023-01-11T13:06:10.014Z,6.24
2023-01-11T13:06:30.444Z,6.22
2023-01-11T13:06:53.707Z,6.21
2023-01-11T13:07:16.147Z,6.21
2023-01-11T13:07:52.864Z,6.20
2023-01-11T13:08:11.671Z,6.22
2023-01-11T13:08:38.117Z,6.18
2023-01-11T13:08:58.621Z,6.22
2023-01-11T13:09:27.193Z,6.21
2023-01-11T13:09:54.546Z,6.21
2023-01-11T13:10:23.766Z,6.21
2023-01-11T13:10:48.088Z,6.23
2023-01-11T13:11:10.946Z,6.22
2023-01-11T13:11:38.471Z,6.24
2023-01-11T13:11:56.980Z,6.24
2023-01-11T13:12:17.270Z,6.26
2023-01-11T13:12:37.602Z,6.25
2023-01-11T13:12:56.479Z,6.25
2023-01-11T13:13:15.038Z,6.25
2023-01-11T13:13:37.559Z,6.25
2023-01-11T13:14:00.491Z,6.24
2023-01-11T13:14:34.082Z,6.26
2023-01-11T13:15:00.859Z,6.25
2023-01-11T13:15:28.370Z,6.23
2023-01-11T13:15:48.967Z,6.22
2023-01-11T13:16:08.239Z,6.21
2023-01-11T13:16:27.569Z,6.23
2023-01-11T13:16:47.305Z,6.24
2023-01-11T13:17:08.187Z,6.23
2023-01-11T13:17:28.052Z,6.22
2023-01-11T13:17:45.809Z,6.24
2023-01-11T13:18:05.425Z,6.26
2023-01-11T13:18:29.749Z,6.26
2023-01-11T13:18:49.591Z,6.25
2023-01-11T13:19:07.659Z,6.23
2023-01-11T13:19:26.908Z,6.25
2023-01-11T13:19:47.155Z,6.24
2023-01-11T13:20:17.352Z,6.24
2023-01-11T13:20:59.462Z,6.26
2023-01-11T13:21:25.476Z,6.27
2023-01-11T13:21:44.333Z,6.24
2023-01-11T13:21:58.388Z,6.23
2023-01-11T13:22:15.579Z,6.23
2023-01-11T13:22:34.265Z,6.22
2023-01-11T13:22:50.696Z,6.23
2023-01-11T13:23:08.289Z,6.23
2023-01-11T13:23:29.368Z,6.24
2023-01-11T13:23:47.665Z,6.22
2023-01-11T13:24:07.461Z,6.22
2023-01-11T13:24:26.405Z,6.25
2023-01-11T13:24:40.827Z,6.30
2023-01-11T13:24:53.482Z,6.30
2023-01-11T13:25:16.468Z,6.30
2023-01-11T13:25:32.733Z,6.28
2023-01-11T13:25:48.488Z,6.26
2023-01-11T13:26:09.847Z,6.24
2023-01-11T13:26:26.578Z,6.24
2023-01-11T13:26:42.760Z,6.25
2023-01-11T13:27:01.613Z,6.24
2023-01-11T13:27:18.994Z,6.26
2023-01-11T13:27:32.876Z,6.24
2023-01-11T13:27:47.542Z,6.25
2023-01-11T13:28:04.946Z,6.23
2023-01-11T13:28:24.626Z,6.23
2023-01-11T13:28:42.036Z,6.24
2023-01-11T13:29:01.072Z,6.23
2023-01-11T13:29:17.023Z,6.24
2023-01-11T13:29:32.447Z,6.24
2023-01-11T13:29:47.411Z,6.25
2023-01-11T13:30:01.925Z,6.23
2023-01-11T13:30:17.981Z,6.24
2023-01-11T13:30:32.056Z,6.25
2023-01-11T13:30:46.481Z,6.25
2023-01-11T13:31:02.741Z,6.23
2023-01-11T13:31:16.499Z,6.21
2023-01-11T13:31:34.492Z,6.21
2023-01-11T13:31:49.663Z,6.21
2023-01-11T13:32:05.621Z,6.22
2023-01-11T13:32:21.477Z,6.23
2023-01-11T13:32:38.251Z,6.27
2023-01-11T13:32:56.218Z,6.27
2023-01-11T13:33:17.329Z,6.28
2023-01-11T13:33:32.645Z,6.27
2023-01-11T13:33:50.728Z,6.27
2023-01-11T13:34:07.048Z,6.28
2023-01-11T13:34:25.673Z,6.29
2023-01-11T13:34:42.341Z,6.27
2023-01-11T13:35:01.195Z,6.27
2023-01-11T13:35:16.838Z,6.25
2023-01-11T13:35:37.264Z,6.23
2023-01-11T13:35:57.419Z,6.23
2023-01-11T13:36:22.919Z,6.24
2023-01-11T13:36:42.388Z,6.20
2023-01-11T13:36:59.748Z,6.22
2023-01-11T13:37:20.106Z,6.19
2023-01-11T13:37:40.273Z,6.20
2023-01-11T13:38:01.600Z,6.22
2023-01-11T13:38:27.595Z,6.21
2023-01-11T13:38:46.393Z,6.22
2023-01-11T13:39:05.208Z,6.23
2023-01-11T13:39:28.515Z,6.22
2023-01-11T13:39:46.717Z,6.22
2023-01-11T13:40:09.415Z,6.22
2023-01-11T13:40:24.978Z,6.22
2023-01-11T13:40:44.728Z,6.24
2023-01-11T13:41:01.737Z,6.22
2023-01-11T13:41:21.049Z,6.21
2023-01-11T13:41:41.413Z,6.20
2023-01-11T13:41:57.740Z,6.20
2023-01-11T13:42:15.831Z,6.19
2023-01-11T13:42:33.942Z,6.22
2023-01-11T13:42:51.933Z,6.23
2023-01-11T13:43:10.319Z,6.23
2023-01-11T13:43:30.908Z,6.23
2023-01-11T13:43:49.285Z,6.21
2023-01-11T13:44:11.522Z,6.20
2023-01-11T13:44:27.930Z,6.16
2023-01-11T13:44:44.672Z,6.18
2023-01-11T13:45:01.858Z,6.19
2023-01-11T13:45:20.892Z,6.19
2023-01-11T13:45:37.102Z,6.18
2023-01-11T13:45:54.491Z,6.16
2023-01-11T13:46:14.907Z,6.19
2023-01-11T13:46:45.005Z,6.18
2023-01-11T13:47:06.139Z,6.19
2023-01-11T13:47:24.286Z,6.18
2023-01-11T13:47:42.065Z,6.18
2023-01-11T13:47:58.518Z,6.18
2023-01-11T13:48:18.481Z,6.19
2023-01-11T13:48:37.589Z,6.19
2023-01-11T13:48:55.968Z,6.19
2023-01-11T13:49:18.521Z,6.19
2023-01-11T13:49:52.519Z,6.17
2023-01-11T13:50:13.376Z,6.20
2023-01-11T13:50:31.160Z,6.19
2023-01-11T13:50:51.550Z,6.18
2023-01-11T13:51:19.191Z,6.20
2023-01-11T13:51:38.964Z,6.24
2023-01-11T13:51:56.188Z,6.27
2023-01-11T13:52:14.461Z,6.25
2023-01-11T13:52:38.855Z,6.28
2023-01-11T13:53:03.719Z,6.24
2023-01-11T13:53:32.950Z,6.24
2023-01-11T13:53:53.084Z,6.22
2023-01-11T13:54:12.085Z,6.21
2023-01-11T13:54:35.261Z,6.20
2023-01-11T13:54:58.714Z,6.21
2023-01-11T13:55:25.129Z,6.20
2023-01-11T13:55:46.042Z,6.20
2023-01-11T13:56:03.121Z,6.19
2023-01-11T13:56:20.611Z,6.21
2023-01-11T13:56:38.331Z,6.18
2023-01-11T13:56:56.945Z,6.19
2023-01-11T13:57:19.753Z,6.19
2023-01-11T13:57:43.469Z,6.20
2023-01-11T13:58:01.688Z,6.17
2023-01-11T13:58:20.494Z,6.18
2023-01-11T13:58:42.528Z,6.16
2023-01-11T13:59:01.638Z,6.18
2023-01-11T13:59:19.982Z,6.17
2023-01-11T13:59:40.761Z,6.22
2023-01-11T14:00:00.328Z,6.21
2023-01-11T14:00:22.431Z,6.19
2023-01-11T14:00:42.234Z,6.17
2023-01-11T14:01:01.498Z,6.18
2023-01-11T14:01:18.146Z,6.19
2023-01-11T14:01:42.627Z,6.16
2023-01-11T14:02:01.502Z,6.16
2023-01-11T14:02:22.129Z,6.14
2023-01-11T14:02:40.658Z,6.16
2023-01-11T14:02:59.966Z,6.16
2023-01-11T14:03:24.242Z,6.17
2023-01-11T14:03:45.168Z,6.15
2023-01-11T14:04:06.144Z,6.20
2023-01-11T14:04:27.243Z,6.19
2023-01-11T14:04:47.009Z,6.20
2023-01-11T14:05:04.489Z,6.19
2023-01-11T14:05:19.377Z,6.18
2023-01-11T14:05:39.355Z,6.20
2023-01-11T14:06:02.554Z,6.20
2023-01-11T14:06:42.462Z,6.19
2023-01-11T14:07:07.381Z,6.17
2023-01-11T14:07:29.198Z,6.16
2023-01-11T14:07:56.054Z,6.18
2023-01-11T14:08:24.284Z,6.15
2023-01-11T14:09:00.630Z,6.17
2023-01-11T14:09:38.547Z,6.15
2023-01-11T14:10:18.112Z,6.14
2023-01-11T14:10:40.334Z,6.15
2023-01-11T14:11:01.326Z,6.14
2023-01-11T14:11:23.808Z,6.15
2023-01-11T14:11:47.292Z,6.14
2023-01-11T14:12:08.798Z,6.16
2023-01-11T14:12:34.554Z,6.17
2023-01-11T14:13:04.397Z,6.14
2023-01-11T14:14:08.153Z,6.16
2023-01-11T14:14:41.671Z,6.15
2023-01-11T14:15:22.614Z,6.16
2023-01-11T14:15:41.732Z,6.15
2023-01-11T14:15:59.300Z,6.16
2023-01-11T14:16:21.459Z,6.16
2023-01-11T14:16:46.987Z,6.14
2023-01-11T14:17:19.175Z,6.17
2023-01-11T14:18:09.282Z,6.18
2023-01-11T14:18:29.936Z,6.17
2023-01-11T14:18:48.436Z,6.17
2023-01-11T14:19:05.792Z,6.18
2023-01-11T14:19:25.515Z,6.19
2023-01-11T14:19:46.136Z,6.18
2023-01-11T14:20:09.834Z,6.19
2023-01-11T14:20:33.380Z,6.18
2023-01-11T14:20:54.453Z,6.18
2023-01-11T14:21:13.197Z,6.18
2023-01-11T14:21:34.253Z,6.21
2023-01-11T14:22:01.791Z,6.18
2023-01-11T14:22:26.923Z,6.18
2023-01-11T14:22:44.123Z,6.17
2023-01-11T14:23:05.390Z,6.18
2023-01-11T14:23:21.470Z,6.17
2023-01-11T14:23:44.141Z,6.18
2023-01-11T14:23:57.922Z,6.17
2023-01-11T14:24:12.390Z,6.17
2023-01-11T14:24:28.093Z,6.18
2023-01-11T14:24:53.365Z,6.19
2023-01-11T14:25:14.971Z,6.20
2023-01-11T14:25:32.665Z,6.19
2023-01-11T14:26:02.731Z,6.17
2023-01-11T14:26:41.616Z,6.19
2023-01-11T14:27:13.213Z,6.19
2023-01-11T14:27:54.352Z,6.18
2023-01-11T14:28:33.903Z,6.19
2023-01-11T14:29:02.592Z,6.18
2023-01-11T14:29:44.615Z,6.18
2023-01-11T14:30:16.453Z,6.18
2023-01-11T14:30:47.152Z,6.17
2023-01-11T14:31:23.146Z,6.17
2023-01-11T14:31:58.527Z,6.17
2023-01-11T14:32:37.460Z,6.16
2023-01-11T14:33:20.686Z,6.17
2023-01-11T14:34:19.167Z,6.15
2023-01-11T14:35:00.012Z,6.16
2023-01-11T14:35:45.822Z,6.14
2023-01-11T14:36:14.069Z,6.13
2023-01-11T14:36:45.195Z,6.13
2023-01-11T14:37:37.575Z,6.14
2023-01-11T14:38:12.914Z,6.16
2023-01-11T14:39:10.509Z,6.16
2023-01-11T14:39:57.692Z,6.14
2023-01-11T14:40:42.095Z,6.17
2023-01-11T14:41:34.441Z,6.14
2023-01-11T14:42:31.357Z,6.14
2023-01-11T14:43:16.176Z,6.15
2023-01-11T14:44:05.278Z,6.18
2023-01-11T14:44:36.580Z,6.17
2023-01-11T14:45:14.265Z,6.16
2023-01-11T14:45:40.981Z,6.18
2023-01-11T14:46:14.506Z,6.17
2023-01-11T14:47:03.172Z,6.17
2023-01-11T14:47:33.889Z,6.15
2023-01-11T14:48:02.523Z,6.18
2023-01-11T14:48:27.072Z,6.18
2023-01-11T14:48:53.633Z,6.19
2023-01-11T14:49:16.541Z,6.17
2023-01-11T14:49:51.893Z,6.22
2023-01-11T14:50:16.150Z,6.20
2023-01-11T14:50:42.003Z,6.20
2023-01-11T14:51:15.597Z,6.18
2023-01-11T14:51:34.674Z,6.15
2023-01-11T14:51:56.247Z,6.17
2023-01-11T14:52:15.386Z,6.17
2023-01-11T14:52:40.110Z,6.14
2023-01-11T14:52:57.620Z,6.18
2023-01-11T14:53:17.775Z,6.15
2023-01-11T14:53:33.109Z,6.16
2023-01-11T14:53:49.872Z,6.17
2023-01-11T14:54:07.130Z,6.15
2023-01-11T14:54:24.457Z,6.16
2023-01-11T14:54:40.718Z,6.17
2023-01-11T14:54:55.150Z,6.17
2023-01-11T14:55:16.468Z,6.17
2023-01-11T14:55:31.898Z,6.15
2023-01-11T14:55:46.578Z,6.16
2023-01-11T14:55:59.253Z,6.16
2023-01-11T14:56:51.616Z,6.17
2023-01-11T14:57:05.702Z,6.18
2023-01-11T14:57:39.855Z,6.18
2023-01-11T14:58:18.686Z,6.18
2023-01-11T14:58:33.263Z,6.18
2023-01-11T14:59:02.891Z,6.17
2023-01-11T14:59:33.402Z,6.19
2023-01-11T14:59:47.017Z,6.18
2023-01-11T15:00:01.745Z,6.18
2023-01-11T15:01:08.157Z,6.18
2023-01-11T15:01:22.707Z,6.17
2023-01-11T15:02:15.218Z,6.17
2023-01-11T15:02:29.618Z,6.16
2023-01-11T15:02:43.640Z,6.17
2023-01-11T15:03:30.817Z,6.18
2023-01-11T15:03:55.348Z,6.17
2023-01-11T15:04:21.345Z,6.13
2023-01-11T15:04:35.981Z,6.15
2023-01-11T15:05:31.443Z,6.15
2023-01-11T15:05:47.389Z,6.15
2023-01-11T15:06:03.280Z,6.16
2023-01-11T15:06:20.457Z,6.15
2023-01-11T15:06:54.549Z,6.11
2023-01-11T15:07:23.495Z,6.12
2023-01-11T15:07:40.530Z,6.16
2023-01-11T15:08:10.873Z,6.16
2023-01-11T15:08:25.350Z,6.11
2023-01-11T15:08:43.374Z,6.12
2023-01-11T15:08:56.149Z,6.17
2023-01-11T15:09:43.315Z,6.14
2023-01-11T15:09:57.889Z,6.16
2023-01-11T15:10:46.789Z,6.13
2023-01-11T15:11:04.184Z,6.14
2023-01-11T15:11:32.929Z,6.14
2023-01-11T15:11:45.578Z,6.14